sensor_id;sensor_type;location;lat;lon;timestamp;P1;durP1;ratioP1;P2;durP2;ratioP2
82850;SDS011;72609;45.768;4.884;2023-12-20T00:00:25;42.90;;;23.80;;
82850;SDS011;72609;45.768;4.884;2023-12-20T00:02:50;46.65;;;22.75;;
82850;SDS011;72609;45.768;4.884;2023-12-20T00:05:16;41.35;;;23.05;;
82850;SDS011;72609;45.768;4.884;2023-12-20T00:07:42;48.63;;;24.85;;
82850;SDS011;72609;45.768;4.884;2023-12-20T00:10:08;43.45;;;22.60;;
82850;SDS011;72609;45.768;4.884;2023-12-20T00:12:34;42.60;;;20.90;;
82850;SDS011;72609;45.768;4.884;2023-12-20T00:14:59;40.83;;;22.55;;
82850;SDS011;72609;45.768;4.884;2023-12-20T00:17:25;45.90;;;20.98;;
82850;SDS011;72609;45.768;4.884;2023-12-20T00:19:50;50.53;;;21.25;;
82850;SDS011;72609;45.768;4.884;2023-12-20T00:22:16;44.55;;;19.75;;
82850;SDS011;72609;45.768;4.884;2023-12-20T00:24:41;46.55;;;22.35;;
82850;SDS011;72609;45.768;4.884;2023-12-20T00:27:07;51.30;;;23.40;;
82850;SDS011;72609;45.768;4.884;2023-12-20T00:29:33;46.10;;;21.65;;
82850;SDS011;72609;45.768;4.884;2023-12-20T00:31:58;47.67;;;23.95;;
82850;SDS011;72609;45.768;4.884;2023-12-20T00:34:24;45.05;;;21.65;;
82850;SDS011;72609;45.768;4.884;2023-12-20T00:36:49;47.05;;;24.23;;
82850;SDS011;72609;45.768;4.884;2023-12-20T00:39:15;47.00;;;23.88;;
82850;SDS011;72609;45.768;4.884;2023-12-20T00:41:41;52.13;;;23.55;;
82850;SDS011;72609;45.768;4.884;2023-12-20T00:44:06;46.03;;;22.45;;
82850;SDS011;72609;45.768;4.884;2023-12-20T00:46:32;46.03;;;22.83;;
82850;SDS011;72609;45.768;4.884;2023-12-20T00:48:57;47.70;;;22.33;;
82850;SDS011;72609;45.768;4.884;2023-12-20T00:51:23;44.97;;;24.40;;
82850;SDS011;72609;45.768;4.884;2023-12-20T00:53:49;41.42;;;20.90;;
82850;SDS011;72609;45.768;4.884;2023-12-20T00:56:19;48.88;;;22.05;;
82850;SDS011;72609;45.768;4.884;2023-12-20T00:58:45;38.15;;;21.70;;
82850;SDS011;72609;45.768;4.884;2023-12-20T01:01:11;42.10;;;20.77;;
82850;SDS011;72609;45.768;4.884;2023-12-20T01:03:36;41.80;;;20.70;;
82850;SDS011;72609;45.768;4.884;2023-12-20T01:06:02;44.72;;;21.83;;
82850;SDS011;72609;45.768;4.884;2023-12-20T01:08:29;46.58;;;20.50;;
82850;SDS011;72609;45.768;4.884;2023-12-20T01:10:55;43.92;;;22.20;;
82850;SDS011;72609;45.768;4.884;2023-12-20T01:13:21;39.72;;;19.08;;
82850;SDS011;72609;45.768;4.884;2023-12-20T01:15:46;43.10;;;21.55;;
82850;SDS011;72609;45.768;4.884;2023-12-20T01:18:13;34.45;;;19.58;;
82850;SDS011;72609;45.768;4.884;2023-12-20T01:20:39;42.80;;;21.58;;
82850;SDS011;72609;45.768;4.884;2023-12-20T01:23:04;43.30;;;21.55;;
82850;SDS011;72609;45.768;4.884;2023-12-20T01:25:30;37.67;;;18.08;;
82850;SDS011;72609;45.768;4.884;2023-12-20T01:27:55;41.08;;;20.23;;
82850;SDS011;72609;45.768;4.884;2023-12-20T01:30:21;37.08;;;21.20;;
82850;SDS011;72609;45.768;4.884;2023-12-20T01:32:47;42.10;;;19.75;;
82850;SDS011;72609;45.768;4.884;2023-12-20T01:35:12;35.25;;;17.60;;
82850;SDS011;72609;45.768;4.884;2023-12-20T01:37:38;37.75;;;17.67;;
82850;SDS011;72609;45.768;4.884;2023-12-20T01:40:04;39.53;;;21.35;;
82850;SDS011;72609;45.768;4.884;2023-12-20T01:42:30;31.05;;;17.02;;
82850;SDS011;72609;45.768;4.884;2023-12-20T01:44:55;38.03;;;19.05;;
82850;SDS011;72609;45.768;4.884;2023-12-20T01:47:21;39.45;;;19.92;;
82850;SDS011;72609;45.768;4.884;2023-12-20T01:49:47;35.47;;;18.85;;
82850;SDS011;72609;45.768;4.884;2023-12-20T01:52:14;35.35;;;18.55;;
82850;SDS011;72609;45.768;4.884;2023-12-20T01:54:39;38.50;;;17.90;;
82850;SDS011;72609;45.768;4.884;2023-12-20T01:57:07;38.35;;;19.08;;
82850;SDS011;72609;45.768;4.884;2023-12-20T01:59:33;34.20;;;17.95;;
82850;SDS011;72609;45.768;4.884;2023-12-20T02:01:59;32.00;;;17.63;;
82850;SDS011;72609;45.768;4.884;2023-12-20T02:04:26;30.42;;;18.70;;
82850;SDS011;72609;45.768;4.884;2023-12-20T02:06:52;32.53;;;19.15;;
82850;SDS011;72609;45.768;4.884;2023-12-20T02:09:18;27.35;;;15.90;;
82850;SDS011;72609;45.768;4.884;2023-12-20T02:11:44;31.15;;;17.30;;
82850;SDS011;72609;45.768;4.884;2023-12-20T02:14:09;34.20;;;19.08;;
82850;SDS011;72609;45.768;4.884;2023-12-20T02:16:35;33.13;;;16.02;;
82850;SDS011;72609;45.768;4.884;2023-12-20T02:19:01;31.13;;;16.63;;
82850;SDS011;72609;45.768;4.884;2023-12-20T02:21:32;29.27;;;15.38;;
82850;SDS011;72609;45.768;4.884;2023-12-20T02:23:59;30.42;;;18.27;;
82850;SDS011;72609;45.768;4.884;2023-12-20T02:26:24;30.83;;;16.30;;
82850;SDS011;72609;45.768;4.884;2023-12-20T02:28:50;32.15;;;16.40;;
82850;SDS011;72609;45.768;4.884;2023-12-20T02:31:15;37.75;;;16.25;;
82850;SDS011;72609;45.768;4.884;2023-12-20T02:33:41;36.00;;;17.70;;
82850;SDS011;72609;45.768;4.884;2023-12-20T02:36:07;30.30;;;17.00;;
82850;SDS011;72609;45.768;4.884;2023-12-20T02:38:32;27.52;;;18.10;;
82850;SDS011;72609;45.768;4.884;2023-12-20T02:40:59;34.25;;;16.98;;
82850;SDS011;72609;45.768;4.884;2023-12-20T02:43:24;29.58;;;17.30;;
82850;SDS011;72609;45.768;4.884;2023-12-20T02:45:50;33.45;;;17.63;;
82850;SDS011;72609;45.768;4.884;2023-12-20T02:48:16;30.90;;;18.40;;
82850;SDS011;72609;45.768;4.884;2023-12-20T02:50:41;29.60;;;17.35;;
82850;SDS011;72609;45.768;4.884;2023-12-20T02:53:07;31.83;;;17.73;;
82850;SDS011;72609;45.768;4.884;2023-12-20T02:55:32;35.42;;;18.73;;
82850;SDS011;72609;45.768;4.884;2023-12-20T02:57:58;31.38;;;18.55;;
82850;SDS011;72609;45.768;4.884;2023-12-20T03:00:24;26.92;;;15.50;;
82850;SDS011;72609;45.768;4.884;2023-12-20T03:02:49;34.38;;;18.70;;
82850;SDS011;72609;45.768;4.884;2023-12-20T03:05:15;33.75;;;16.98;;
82850;SDS011;72609;45.768;4.884;2023-12-20T03:07:40;29.95;;;17.92;;
82850;SDS011;72609;45.768;4.884;2023-12-20T03:10:06;38.38;;;19.48;;
82850;SDS011;72609;45.768;4.884;2023-12-20T03:12:33;37.28;;;19.48;;
82850;SDS011;72609;45.768;4.884;2023-12-20T03:14:58;37.00;;;17.73;;
82850;SDS011;72609;45.768;4.884;2023-12-20T03:17:24;29.67;;;17.58;;
82850;SDS011;72609;45.768;4.884;2023-12-20T03:19:50;34.00;;;19.27;;
82850;SDS011;72609;45.768;4.884;2023-12-20T03:22:15;31.88;;;17.40;;
82850;SDS011;72609;45.768;4.884;2023-12-20T03:24:41;30.98;;;18.73;;
82850;SDS011;72609;45.768;4.884;2023-12-20T03:27:07;31.58;;;20.90;;
82850;SDS011;72609;45.768;4.884;2023-12-20T03:29:33;31.02;;;18.15;;
82850;SDS011;72609;45.768;4.884;2023-12-20T03:31:58;34.35;;;18.35;;
82850;SDS011;72609;45.768;4.884;2023-12-20T03:34:24;32.55;;;16.17;;
82850;SDS011;72609;45.768;4.884;2023-12-20T03:36:50;30.88;;;18.58;;
82850;SDS011;72609;45.768;4.884;2023-12-20T03:39:15;27.02;;;16.17;;
82850;SDS011;72609;45.768;4.884;2023-12-20T03:41:41;29.40;;;16.58;;
82850;SDS011;72609;45.768;4.884;2023-12-20T03:44:06;34.75;;;19.98;;
82850;SDS011;72609;45.768;4.884;2023-12-20T03:46:32;33.05;;;18.98;;
82850;SDS011;72609;45.768;4.884;2023-12-20T03:48:58;33.15;;;16.88;;
82850;SDS011;72609;45.768;4.884;2023-12-20T03:51:23;34.97;;;17.48;;
82850;SDS011;72609;45.768;4.884;2023-12-20T03:53:49;30.45;;;18.38;;
82850;SDS011;72609;45.768;4.884;2023-12-20T03:56:14;30.35;;;16.85;;
82850;SDS011;72609;45.768;4.884;2023-12-20T03:58:40;31.00;;;17.55;;
82850;SDS011;72609;45.768;4.884;2023-12-20T04:01:09;33.03;;;16.95;;
82850;SDS011;72609;45.768;4.884;2023-12-20T04:03:38;30.52;;;16.77;;
82850;SDS011;72609;45.768;4.884;2023-12-20T04:06:05;31.13;;;19.73;;
82850;SDS011;72609;45.768;4.884;2023-12-20T04:08:31;28.27;;;15.93;;
82850;SDS011;72609;45.768;4.884;2023-12-20T04:10:56;31.02;;;17.23;;
82850;SDS011;72609;45.768;4.884;2023-12-20T04:13:22;30.23;;;17.75;;
82850;SDS011;72609;45.768;4.884;2023-12-20T04:15:47;33.20;;;17.30;;
82850;SDS011;72609;45.768;4.884;2023-12-20T04:18:15;31.30;;;17.42;;
82850;SDS011;72609;45.768;4.884;2023-12-20T04:20:41;30.23;;;17.63;;
82850;SDS011;72609;45.768;4.884;2023-12-20T04:23:06;32.28;;;19.30;;
82850;SDS011;72609;45.768;4.884;2023-12-20T04:25:32;29.58;;;16.33;;
82850;SDS011;72609;45.768;4.884;2023-12-20T04:27:57;30.08;;;16.45;;
82850;SDS011;72609;45.768;4.884;2023-12-20T04:30:23;30.63;;;17.40;;
82850;SDS011;72609;45.768;4.884;2023-12-20T04:32:49;31.17;;;17.40;;
82850;SDS011;72609;45.768;4.884;2023-12-20T04:35:14;33.00;;;18.05;;
82850;SDS011;72609;45.768;4.884;2023-12-20T04:37:40;31.13;;;16.92;;
82850;SDS011;72609;45.768;4.884;2023-12-20T04:40:05;33.33;;;17.88;;
82850;SDS011;72609;45.768;4.884;2023-12-20T04:42:33;33.92;;;18.10;;
82850;SDS011;72609;45.768;4.884;2023-12-20T04:44:58;30.88;;;16.75;;
82850;SDS011;72609;45.768;4.884;2023-12-20T04:47:24;33.42;;;17.15;;
82850;SDS011;72609;45.768;4.884;2023-12-20T04:49:49;31.08;;;15.70;;
82850;SDS011;72609;45.768;4.884;2023-12-20T04:52:15;30.83;;;16.88;;
82850;SDS011;72609;45.768;4.884;2023-12-20T04:54:41;33.40;;;17.33;;
82850;SDS011;72609;45.768;4.884;2023-12-20T04:57:06;33.88;;;16.23;;
82850;SDS011;72609;45.768;4.884;2023-12-20T04:59:32;31.38;;;16.80;;
82850;SDS011;72609;45.768;4.884;2023-12-20T05:01:57;32.30;;;17.13;;
82850;SDS011;72609;45.768;4.884;2023-12-20T05:04:23;34.75;;;19.05;;
82850;SDS011;72609;45.768;4.884;2023-12-20T05:06:49;35.47;;;20.08;;
82850;SDS011;72609;45.768;4.884;2023-12-20T05:09:15;30.42;;;17.08;;
82850;SDS011;72609;45.768;4.884;2023-12-20T05:11:41;41.60;;;19.80;;
82850;SDS011;72609;45.768;4.884;2023-12-20T05:14:06;34.55;;;18.05;;
82850;SDS011;72609;45.768;4.884;2023-12-20T05:16:32;33.45;;;18.85;;
82850;SDS011;72609;45.768;4.884;2023-12-20T05:18:58;34.42;;;16.40;;
82850;SDS011;72609;45.768;4.884;2023-12-20T05:21:25;27.88;;;16.17;;
82850;SDS011;72609;45.768;4.884;2023-12-20T05:23:51;33.97;;;17.40;;
82850;SDS011;72609;45.768;4.884;2023-12-20T05:26:17;36.63;;;17.63;;
82850;SDS011;72609;45.768;4.884;2023-12-20T05:28:42;28.63;;;19.00;;
82850;SDS011;72609;45.768;4.884;2023-12-20T05:31:09;31.23;;;16.48;;
82850;SDS011;72609;45.768;4.884;2023-12-20T05:33:34;31.90;;;17.08;;
82850;SDS011;72609;45.768;4.884;2023-12-20T05:36:00;34.38;;;18.52;;
82850;SDS011;72609;45.768;4.884;2023-12-20T05:38:26;29.17;;;16.48;;
82850;SDS011;72609;45.768;4.884;2023-12-20T05:40:51;31.08;;;16.70;;
82850;SDS011;72609;45.768;4.884;2023-12-20T05:43:17;32.47;;;18.40;;
82850;SDS011;72609;45.768;4.884;2023-12-20T05:45:42;29.73;;;16.52;;
82850;SDS011;72609;45.768;4.884;2023-12-20T05:48:08;28.15;;;16.38;;
82850;SDS011;72609;45.768;4.884;2023-12-20T05:50:34;27.05;;;16.42;;
82850;SDS011;72609;45.768;4.884;2023-12-20T05:53:00;26.90;;;15.57;;
82850;SDS011;72609;45.768;4.884;2023-12-20T05:55:25;31.58;;;15.73;;
82850;SDS011;72609;45.768;4.884;2023-12-20T05:57:51;30.70;;;16.98;;
82850;SDS011;72609;45.768;4.884;2023-12-20T06:00:17;32.45;;;16.75;;
82850;SDS011;72609;45.768;4.884;2023-12-20T06:02:43;30.73;;;16.48;;
82850;SDS011;72609;45.768;4.884;2023-12-20T06:05:17;32.63;;;17.35;;
82850;SDS011;72609;45.768;4.884;2023-12-20T06:07:43;28.90;;;16.83;;
82850;SDS011;72609;45.768;4.884;2023-12-20T06:10:10;29.98;;;16.20;;
82850;SDS011;72609;45.768;4.884;2023-12-20T06:12:35;31.52;;;16.05;;
82850;SDS011;72609;45.768;4.884;2023-12-20T06:15:02;34.05;;;15.60;;
82850;SDS011;72609;45.768;4.884;2023-12-20T06:17:28;28.40;;;16.40;;
82850;SDS011;72609;45.768;4.884;2023-12-20T06:19:55;29.48;;;16.63;;
82850;SDS011;72609;45.768;4.884;2023-12-20T06:22:21;29.23;;;16.90;;
82850;SDS011;72609;45.768;4.884;2023-12-20T06:24:46;28.25;;;16.88;;
82850;SDS011;72609;45.768;4.884;2023-12-20T06:27:12;29.17;;;17.63;;
82850;SDS011;72609;45.768;4.884;2023-12-20T06:29:41;36.92;;;18.92;;
82850;SDS011;72609;45.768;4.884;2023-12-20T06:32:10;34.92;;;17.25;;
82850;SDS011;72609;45.768;4.884;2023-12-20T06:34:35;27.52;;;16.92;;
82850;SDS011;72609;45.768;4.884;2023-12-20T06:37:01;31.77;;;17.25;;
82850;SDS011;72609;45.768;4.884;2023-12-20T06:39:27;27.13;;;15.38;;
82850;SDS011;72609;45.768;4.884;2023-12-20T06:41:53;31.63;;;16.67;;
82850;SDS011;72609;45.768;4.884;2023-12-20T06:44:18;35.53;;;18.33;;
82850;SDS011;72609;45.768;4.884;2023-12-20T06:46:44;35.65;;;17.60;;
82850;SDS011;72609;45.768;4.884;2023-12-20T06:49:16;31.17;;;18.50;;
82850;SDS011;72609;45.768;4.884;2023-12-20T06:51:45;31.50;;;17.80;;
82850;SDS011;72609;45.768;4.884;2023-12-20T06:54:10;31.20;;;16.20;;
82850;SDS011;72609;45.768;4.884;2023-12-20T06:56:36;34.38;;;16.40;;
82850;SDS011;72609;45.768;4.884;2023-12-20T06:59:02;31.35;;;16.05;;
82850;SDS011;72609;45.768;4.884;2023-12-20T07:01:27;32.65;;;17.30;;
82850;SDS011;72609;45.768;4.884;2023-12-20T07:03:53;34.25;;;20.23;;
82850;SDS011;72609;45.768;4.884;2023-12-20T07:06:19;34.10;;;19.08;;
82850;SDS011;72609;45.768;4.884;2023-12-20T07:08:45;34.67;;;18.58;;
82850;SDS011;72609;45.768;4.884;2023-12-20T07:11:11;37.92;;;22.02;;
82850;SDS011;72609;45.768;4.884;2023-12-20T07:13:37;34.03;;;18.58;;
82850;SDS011;72609;45.768;4.884;2023-12-20T07:16:03;32.65;;;17.13;;
82850;SDS011;72609;45.768;4.884;2023-12-20T07:18:28;33.20;;;17.45;;
82850;SDS011;72609;45.768;4.884;2023-12-20T07:20:54;28.95;;;17.05;;
82850;SDS011;72609;45.768;4.884;2023-12-20T07:23:20;31.40;;;17.45;;
82850;SDS011;72609;45.768;4.884;2023-12-20T07:25:46;32.63;;;16.90;;
82850;SDS011;72609;45.768;4.884;2023-12-20T07:28:12;32.78;;;17.17;;
82850;SDS011;72609;45.768;4.884;2023-12-20T07:30:38;33.08;;;18.33;;
82850;SDS011;72609;45.768;4.884;2023-12-20T07:33:03;37.75;;;22.10;;
82850;SDS011;72609;45.768;4.884;2023-12-20T07:35:30;31.38;;;17.33;;
82850;SDS011;72609;45.768;4.884;2023-12-20T07:37:55;32.03;;;19.02;;
82850;SDS011;72609;45.768;4.884;2023-12-20T07:40:21;40.70;;;21.10;;
82850;SDS011;72609;45.768;4.884;2023-12-20T07:42:48;32.55;;;18.85;;
82850;SDS011;72609;45.768;4.884;2023-12-20T07:45:14;39.10;;;20.45;;
82850;SDS011;72609;45.768;4.884;2023-12-20T07:47:40;36.20;;;19.50;;
82850;SDS011;72609;45.768;4.884;2023-12-20T07:50:06;38.22;;;20.20;;
82850;SDS011;72609;45.768;4.884;2023-12-20T07:52:32;37.75;;;18.63;;
82850;SDS011;72609;45.768;4.884;2023-12-20T07:54:57;33.00;;;18.48;;
82850;SDS011;72609;45.768;4.884;2023-12-20T07:57:23;35.58;;;18.02;;
82850;SDS011;72609;45.768;4.884;2023-12-20T07:59:49;34.13;;;19.75;;
82850;SDS011;72609;45.768;4.884;2023-12-20T08:02:14;27.50;;;13.20;;
82850;SDS011;72609;45.768;4.884;2023-12-20T08:04:40;23.60;;;12.18;;
82850;SDS011;72609;45.768;4.884;2023-12-20T08:07:06;25.00;;;14.02;;
82850;SDS011;72609;45.768;4.884;2023-12-20T08:09:32;24.48;;;13.85;;
82850;SDS011;72609;45.768;4.884;2023-12-20T08:14:25;20.08;;;10.75;;
82850;SDS011;72609;45.768;4.884;2023-12-20T08:16:50;22.65;;;11.07;;
82850;SDS011;72609;45.768;4.884;2023-12-20T08:19:16;19.50;;;11.68;;
82850;SDS011;72609;45.768;4.884;2023-12-20T08:21:42;23.48;;;13.48;;
82850;SDS011;72609;45.768;4.884;2023-12-20T08:24:07;22.35;;;13.15;;
82850;SDS011;72609;45.768;4.884;2023-12-20T08:26:33;17.60;;;12.23;;
82850;SDS011;72609;45.768;4.884;2023-12-20T08:28:59;22.95;;;11.73;;
82850;SDS011;72609;45.768;4.884;2023-12-20T08:31:24;18.38;;;10.65;;
82850;SDS011;72609;45.768;4.884;2023-12-20T08:33:51;17.05;;;11.07;;
82850;SDS011;72609;45.768;4.884;2023-12-20T08:36:18;21.27;;;11.63;;
82850;SDS011;72609;45.768;4.884;2023-12-20T08:38:46;19.77;;;10.27;;
82850;SDS011;72609;45.768;4.884;2023-12-20T08:41:12;21.48;;;9.73;;
82850;SDS011;72609;45.768;4.884;2023-12-20T08:43:38;18.05;;;11.18;;
82850;SDS011;72609;45.768;4.884;2023-12-20T08:46:06;17.63;;;10.38;;
82850;SDS011;72609;45.768;4.884;2023-12-20T08:48:34;18.17;;;11.45;;
82850;SDS011;72609;45.768;4.884;2023-12-20T08:51:00;22.27;;;12.63;;
82850;SDS011;72609;45.768;4.884;2023-12-20T08:53:25;19.27;;;10.90;;
82850;SDS011;72609;45.768;4.884;2023-12-20T08:55:51;17.33;;;10.20;;
82850;SDS011;72609;45.768;4.884;2023-12-20T08:58:17;22.08;;;10.98;;
82850;SDS011;72609;45.768;4.884;2023-12-20T09:00:43;21.70;;;11.90;;
82850;SDS011;72609;45.768;4.884;2023-12-20T09:03:08;22.15;;;10.57;;
82850;SDS011;72609;45.768;4.884;2023-12-20T09:05:34;19.38;;;11.75;;
82850;SDS011;72609;45.768;4.884;2023-12-20T09:08:00;22.55;;;12.88;;
82850;SDS011;72609;45.768;4.884;2023-12-20T09:10:25;22.30;;;12.00;;
82850;SDS011;72609;45.768;4.884;2023-12-20T09:12:51;20.90;;;9.73;;
82850;SDS011;72609;45.768;4.884;2023-12-20T09:15:23;22.10;;;12.20;;
82850;SDS011;72609;45.768;4.884;2023-12-20T09:17:49;24.80;;;11.63;;
82850;SDS011;72609;45.768;4.884;2023-12-20T09:20:15;19.98;;;11.20;;
82850;SDS011;72609;45.768;4.884;2023-12-20T09:22:40;21.83;;;11.48;;
82850;SDS011;72609;45.768;4.884;2023-12-20T09:25:07;21.42;;;12.70;;
82850;SDS011;72609;45.768;4.884;2023-12-20T09:27:33;16.67;;;10.13;;
82850;SDS011;72609;45.768;4.884;2023-12-20T09:29:58;20.02;;;10.63;;
82850;SDS011;72609;45.768;4.884;2023-12-20T09:32:24;19.40;;;10.82;;
82850;SDS011;72609;45.768;4.884;2023-12-20T09:34:49;21.77;;;10.60;;
82850;SDS011;72609;45.768;4.884;2023-12-20T09:37:15;20.27;;;10.23;;
82850;SDS011;72609;45.768;4.884;2023-12-20T09:39:41;19.83;;;11.98;;
82850;SDS011;72609;45.768;4.884;2023-12-20T09:42:06;21.25;;;12.35;;
82850;SDS011;72609;45.768;4.884;2023-12-20T09:44:33;21.35;;;11.40;;
82850;SDS011;72609;45.768;4.884;2023-12-20T09:47:01;18.73;;;10.43;;
82850;SDS011;72609;45.768;4.884;2023-12-20T09:49:28;18.15;;;10.48;;
82850;SDS011;72609;45.768;4.884;2023-12-20T09:51:55;19.02;;;10.40;;
82850;SDS011;72609;45.768;4.884;2023-12-20T09:54:22;17.85;;;9.35;;
82850;SDS011;72609;45.768;4.884;2023-12-20T09:56:48;12.77;;;7.50;;
82850;SDS011;72609;45.768;4.884;2023-12-20T09:59:14;13.80;;;7.88;;
82850;SDS011;72609;45.768;4.884;2023-12-20T10:01:41;15.93;;;7.25;;
82850;SDS011;72609;45.768;4.884;2023-12-20T10:06:37;16.42;;;9.77;;
82850;SDS011;72609;45.768;4.884;2023-12-20T10:09:04;18.50;;;9.45;;
82850;SDS011;72609;45.768;4.884;2023-12-20T10:11:30;18.48;;;8.90;;
82850;SDS011;72609;45.768;4.884;2023-12-20T10:13:59;19.77;;;10.23;;
82850;SDS011;72609;45.768;4.884;2023-12-20T10:16:28;18.58;;;9.70;;
82850;SDS011;72609;45.768;4.884;2023-12-20T10:18:54;17.88;;;9.23;;
82850;SDS011;72609;45.768;4.884;2023-12-20T10:21:22;13.95;;;8.82;;
82850;SDS011;72609;45.768;4.884;2023-12-20T10:26:21;12.75;;;7.63;;
82850;SDS011;72609;45.768;4.884;2023-12-20T10:31:26;14.35;;;6.78;;
82850;SDS011;72609;45.768;4.884;2023-12-20T10:33:56;18.17;;;8.45;;
82850;SDS011;72609;45.768;4.884;2023-12-20T10:36:23;13.77;;;6.72;;
82850;SDS011;72609;45.768;4.884;2023-12-20T10:38:51;11.50;;;6.90;;
82850;SDS011;72609;45.768;4.884;2023-12-20T10:41:18;13.25;;;6.70;;
82850;SDS011;72609;45.768;4.884;2023-12-20T10:43:51;15.57;;;7.70;;
82850;SDS011;72609;45.768;4.884;2023-12-20T10:46:18;14.52;;;8.98;;
82850;SDS011;72609;45.768;4.884;2023-12-20T10:48:45;11.75;;;7.35;;
82850;SDS011;72609;45.768;4.884;2023-12-20T10:51:12;14.45;;;8.10;;
82850;SDS011;72609;45.768;4.884;2023-12-20T10:53:42;9.73;;;6.60;;
82850;SDS011;72609;45.768;4.884;2023-12-20T10:56:08;10.30;;;4.90;;
82850;SDS011;72609;45.768;4.884;2023-12-20T10:58:37;10.13;;;4.97;;
82850;SDS011;72609;45.768;4.884;2023-12-20T11:01:06;10.77;;;5.82;;
82850;SDS011;72609;45.768;4.884;2023-12-20T11:06:46;9.98;;;5.78;;
82850;SDS011;72609;45.768;4.884;2023-12-20T11:14:20;9.65;;;5.32;;
82850;SDS011;72609;45.768;4.884;2023-12-20T11:16:50;11.48;;;5.80;;
82850;SDS011;72609;45.768;4.884;2023-12-20T11:19:16;12.45;;;5.50;;
82850;SDS011;72609;45.768;4.884;2023-12-20T11:21:42;9.05;;;5.65;;
82850;SDS011;72609;45.768;4.884;2023-12-20T11:24:07;7.57;;;4.68;;
82850;SDS011;72609;45.768;4.884;2023-12-20T11:26:34;10.15;;;5.40;;
82850;SDS011;72609;45.768;4.884;2023-12-20T11:31:59;11.32;;;5.30;;
82850;SDS011;72609;45.768;4.884;2023-12-20T11:34:31;7.35;;;4.10;;
82850;SDS011;72609;45.768;4.884;2023-12-20T11:36:58;7.68;;;4.47;;
82850;SDS011;72609;45.768;4.884;2023-12-20T11:39:25;9.25;;;5.15;;
82850;SDS011;72609;45.768;4.884;2023-12-20T11:41:53;12.63;;;4.82;;
82850;SDS011;72609;45.768;4.884;2023-12-20T11:44:21;10.35;;;4.97;;
82850;SDS011;72609;45.768;4.884;2023-12-20T11:46:47;7.93;;;4.47;;
82850;SDS011;72609;45.768;4.884;2023-12-20T11:49:12;6.50;;;4.10;;
82850;SDS011;72609;45.768;4.884;2023-12-20T11:51:41;7.05;;;4.57;;
82850;SDS011;72609;45.768;4.884;2023-12-20T11:54:07;7.78;;;3.97;;
82850;SDS011;72609;45.768;4.884;2023-12-20T11:56:35;5.78;;;4.00;;
82850;SDS011;72609;45.768;4.884;2023-12-20T11:59:01;8.05;;;3.45;;
82850;SDS011;72609;45.768;4.884;2023-12-20T12:01:27;5.35;;;2.80;;
82850;SDS011;72609;45.768;4.884;2023-12-20T12:04:02;8.05;;;2.88;;
82850;SDS011;72609;45.768;4.884;2023-12-20T12:06:28;7.80;;;3.13;;
82850;SDS011;72609;45.768;4.884;2023-12-20T12:08:54;5.95;;;3.78;;
82850;SDS011;72609;45.768;4.884;2023-12-20T12:11:20;8.60;;;3.97;;
82850;SDS011;72609;45.768;4.884;2023-12-20T12:13:46;4.95;;;2.95;;
82850;SDS011;72609;45.768;4.884;2023-12-20T12:16:12;8.25;;;3.13;;
82850;SDS011;72609;45.768;4.884;2023-12-20T12:18:41;4.47;;;2.97;;
82850;SDS011;72609;45.768;4.884;2023-12-20T12:21:08;7.28;;;3.08;;
82850;SDS011;72609;45.768;4.884;2023-12-20T12:23:34;7.80;;;3.25;;
82850;SDS011;72609;45.768;4.884;2023-12-20T12:25:59;5.53;;;2.50;;
82850;SDS011;72609;45.768;4.884;2023-12-20T12:28:28;5.60;;;2.17;;
82850;SDS011;72609;45.768;4.884;2023-12-20T12:30:57;5.90;;;2.78;;
82850;SDS011;72609;45.768;4.884;2023-12-20T12:33:24;7.60;;;2.95;;
82850;SDS011;72609;45.768;4.884;2023-12-20T12:35:51;6.35;;;2.67;;
82850;SDS011;72609;45.768;4.884;2023-12-20T12:38:19;6.80;;;3.72;;
82850;SDS011;72609;45.768;4.884;2023-12-20T12:40:46;9.70;;;3.92;;
82850;SDS011;72609;45.768;4.884;2023-12-20T12:43:12;4.97;;;3.00;;
82850;SDS011;72609;45.768;4.884;2023-12-20T12:45:38;7.40;;;3.60;;
82850;SDS011;72609;45.768;4.884;2023-12-20T12:48:03;6.60;;;3.33;;
82850;SDS011;72609;45.768;4.884;2023-12-20T12:50:30;6.85;;;3.00;;
82850;SDS011;72609;45.768;4.884;2023-12-20T12:52:56;12.70;;;2.92;;
82850;SDS011;72609;45.768;4.884;2023-12-20T12:55:21;5.25;;;2.60;;
82850;SDS011;72609;45.768;4.884;2023-12-20T12:57:47;7.95;;;2.85;;
82850;SDS011;72609;45.768;4.884;2023-12-20T13:00:13;5.90;;;3.17;;
82850;SDS011;72609;45.768;4.884;2023-12-20T13:02:39;4.90;;;2.53;;
82850;SDS011;72609;45.768;4.884;2023-12-20T13:05:07;5.57;;;2.90;;
82850;SDS011;72609;45.768;4.884;2023-12-20T13:07:33;7.32;;;2.45;;
82850;SDS011;72609;45.768;4.884;2023-12-20T13:10:00;4.18;;;2.40;;
82850;SDS011;72609;45.768;4.884;2023-12-20T13:12:26;7.63;;;3.17;;
82850;SDS011;72609;45.768;4.884;2023-12-20T13:14:51;4.75;;;2.65;;
82850;SDS011;72609;45.768;4.884;2023-12-20T13:22:10;4.47;;;2.22;;
82850;SDS011;72609;45.768;4.884;2023-12-20T13:24:35;4.72;;;2.63;;
82850;SDS011;72609;45.768;4.884;2023-12-20T13:27:01;5.05;;;3.63;;
82850;SDS011;72609;45.768;4.884;2023-12-20T13:29:27;5.00;;;3.38;;
82850;SDS011;72609;45.768;4.884;2023-12-20T13:31:52;6.10;;;2.78;;
82850;SDS011;72609;45.768;4.884;2023-12-20T13:34:18;5.50;;;2.65;;
82850;SDS011;72609;45.768;4.884;2023-12-20T13:36:44;10.38;;;2.67;;
82850;SDS011;72609;45.768;4.884;2023-12-20T13:39:15;3.15;;;1.90;;
82850;SDS011;72609;45.768;4.884;2023-12-20T13:41:41;4.25;;;2.15;;
82850;SDS011;72609;45.768;4.884;2023-12-20T13:44:07;6.13;;;1.80;;
82850;SDS011;72609;45.768;4.884;2023-12-20T13:46:33;7.35;;;1.77;;
82850;SDS011;72609;45.768;4.884;2023-12-20T13:48:58;4.10;;;1.80;;
82850;SDS011;72609;45.768;4.884;2023-12-20T13:51:24;3.65;;;1.55;;
82850;SDS011;72609;45.768;4.884;2023-12-20T13:53:50;5.38;;;1.98;;
82850;SDS011;72609;45.768;4.884;2023-12-20T13:56:16;6.68;;;1.60;;
82850;SDS011;72609;45.768;4.884;2023-12-20T13:58:41;3.80;;;1.38;;
82850;SDS011;72609;45.768;4.884;2023-12-20T14:01:10;6.07;;;1.90;;
82850;SDS011;72609;45.768;4.884;2023-12-20T14:03:36;7.25;;;2.45;;
82850;SDS011;72609;45.768;4.884;2023-12-20T14:06:02;3.40;;;1.40;;
82850;SDS011;72609;45.768;4.884;2023-12-20T14:08:28;6.22;;;1.40;;
82850;SDS011;72609;45.768;4.884;2023-12-20T14:10:54;2.78;;;1.67;;
82850;SDS011;72609;45.768;4.884;2023-12-20T14:13:19;3.42;;;1.13;;
82850;SDS011;72609;45.768;4.884;2023-12-20T14:15:48;4.00;;;1.10;;
82850;SDS011;72609;45.768;4.884;2023-12-20T14:18:14;5.43;;;1.42;;
82850;SDS011;72609;45.768;4.884;2023-12-20T14:20:40;3.30;;;0.82;;
82850;SDS011;72609;45.768;4.884;2023-12-20T14:23:07;6.38;;;1.67;;
82850;SDS011;72609;45.768;4.884;2023-12-20T14:25:34;3.60;;;1.13;;
82850;SDS011;72609;45.768;4.884;2023-12-20T14:28:02;4.53;;;1.85;;
82850;SDS011;72609;45.768;4.884;2023-12-20T14:35:19;4.68;;;1.60;;
82850;SDS011;72609;45.768;4.884;2023-12-20T14:37:48;6.75;;;1.98;;
82850;SDS011;72609;45.768;4.884;2023-12-20T14:40:15;6.85;;;2.00;;
82850;SDS011;72609;45.768;4.884;2023-12-20T14:42:44;3.67;;;1.50;;
82850;SDS011;72609;45.768;4.884;2023-12-20T14:45:11;9.10;;;2.28;;
82850;SDS011;72609;45.768;4.884;2023-12-20T14:47:38;6.25;;;1.90;;
82850;SDS011;72609;45.768;4.884;2023-12-20T14:50:03;5.60;;;1.63;;
82850;SDS011;72609;45.768;4.884;2023-12-20T14:52:30;5.28;;;1.52;;